Time;durP1;ratioP1;P1;durP2;ratioP2;P2;SDS_P1;SDS_P2;PMS_P1;PMS_P2;Temp;Humidity;BMP_temperature;BMP_pressure;BME280_temperature;BME280_humidity;BME280_pressure;Samples;Min_cycle;Max_cycle;Signal;HPM_P1;HPM_P2
2023/12/03 00:01:53;;;;;;;12.55;4.88;;;-1.00;1.00;;;;;;5282486;28;20028;-43
2023/12/03 00:04:25;;;;;;;8.63;4.85;;;-1.10;1.00;;;;;;5312724;27;20027;-41
2023/12/03 00:07:01;;;;;;;8.00;4.60;;;-0.90;1.00;;;;;;5288159;28;20054;-41
2023/12/03 00:09:33;;;;;;;5.95;4.20;;;-0.90;1.00;;;;;;5294249;28;20016;-41
2023/12/03 00:12:05;;;;;;;8.13;5.37;;;-0.90;1.00;;;;;;5275896;28;20030;-41
2023/12/03 00:14:37;;;;;;;9.70;5.07;;;-1.00;1.00;;;;;;5295172;27;20019;-41
2023/12/03 00:17:08;;;;;;;8.55;5.22;;;-0.90;1.00;;;;;;5291938;27;20354;-41
2023/12/03 00:19:40;;;;;;;11.30;6.80;;;-0.90;1.00;;;;;;5294926;28;20031;-40
2023/12/03 00:22:14;;;;;;;11.02;5.88;;;-1.00;1.00;;;;;;5294769;28;20016;-42
2023/12/03 00:24:47;;;;;;;8.60;4.53;;;-1.00;1.00;;;;;;5294371;27;20320;-41
2023/12/03 00:27:18;;;;;;;8.52;6.10;;;-1.00;1.00;;;;;;5304082;27;20031;-41
2023/12/03 00:29:49;;;;;;;9.48;5.57;;;-0.90;1.00;;;;;;5306152;27;20023;-39
2023/12/03 00:32:27;;;;;;;8.80;5.00;;;-0.90;1.00;;;;;;5306871;27;20346;-39
2023/12/03 00:35:09;;;;;;;14.25;7.35;;;-0.90;1.00;;;;;;5312525;27;20037;-41
2023/12/03 00:37:43;;;;;;;5.82;4.63;;;-0.90;1.00;;;;;;5306952;27;20244;-38
2023/12/03 00:40:14;;;;;;;11.18;6.25;;;-0.80;1.00;;;;;;5307922;27;20027;-40
2023/12/03 00:42:45;;;;;;;8.40;5.55;;;-1.00;1.00;;;;;;5287727;27;20031;-40
2023/12/03 00:45:18;;;;;;;9.75;5.50;;;-0.90;1.00;;;;;;5272124;28;20028;-39
2023/12/03 00:47:50;;;;;;;7.30;5.18;;;-1.00;1.00;;;;;;5306311;27;20392;-40
2023/12/03 00:50:23;;;;;;;7.72;5.72;;;-1.00;1.00;;;;;;5293779;28;20045;-40
2023/12/03 00:52:54;;;;;;;12.68;5.80;;;-1.10;1.00;;;;;;5295050;27;20035;-40
2023/12/03 00:55:34;;;;;;;7.55;4.63;;;-1.10;1.00;;;;;;5314532;27;20352;-40
2023/12/03 00:58:08;;;;;;;4.63;3.38;;;-1.00;1.00;;;;;;5297164;27;20306;-40
2023/12/03 01:00:42;;;;;;;8.30;5.25;;;-1.00;1.00;;;;;;5270645;28;20027;-40
2023/12/03 01:03:14;;;;;;;7.38;5.35;;;-1.00;1.00;;;;;;5286711;28;20035;-39
2023/12/03 01:05:45;;;;;;;8.35;5.35;;;-1.00;1.00;;;;;;5288055;28;20039;-39
2023/12/03 01:08:16;;;;;;;7.60;4.90;;;-0.90;1.00;;;;;;5289931;28;20026;-40
2023/12/03 01:10:47;;;;;;;11.73;6.18;;;-1.00;1.00;;;;;;5289062;28;20047;-39
2023/12/03 01:13:20;;;;;;;7.50;4.95;;;-1.10;1.00;;;;;;5291138;28;20510;-40
2023/12/03 01:15:56;;;;;;;5.90;4.15;;;-1.00;1.00;;;;;;5288432;28;20046;-39
2023/12/03 01:18:34;;;;;;;3.25;2.95;;;-1.00;1.00;;;;;;5292550;28;20280;-40
2023/12/03 01:21:06;;;;;;;10.20;5.60;;;-0.90;1.00;;;;;;5292046;28;20039;-41
2023/12/03 01:23:37;;;;;;;8.00;4.75;;;-1.00;1.00;;;;;;5290276;28;20028;-39
2023/12/03 01:26:08;;;;;;;10.20;6.90;;;-1.00;1.00;;;;;;5292563;28;20050;-39
2023/12/03 01:28:40;;;;;;;6.60;4.05;;;-1.00;99.90;;;;;;5292125;28;20032;-40
2023/12/03 01:31:27;;;;;;;5.60;3.90;;;-1.20;1.00;;;;;;5289408;28;20049;-40
2023/12/03 01:34:04;;;;;;;6.90;4.20;;;-1.10;1.00;;;;;;5292042;28;20041;-39
2023/12/03 01:36:35;;;;;;;8.85;6.07;;;-1.00;1.00;;;;;;5278538;28;20024;-39
2023/12/03 01:39:06;;;;;;;8.30;5.45;;;-1.20;99.90;;;;;;5276036;28;20043;-39
2023/12/03 01:41:37;;;;;;;3.97;2.78;;;-1.30;99.90;;;;;;5292920;28;20384;-39
2023/12/03 01:44:11;;;;;;;4.15;3.70;;;-1.10;1.00;;;;;;5290320;28;20103;-38
2023/12/03 01:46:43;;;;;;;;;;;-1.10;1.00;;;;;;5289750;28;20104;-38
2023/12/03 01:49:16;;;;;;;7.20;3.85;;;-1.00;1.00;;;;;;5291451;28;19911;-38
2023/12/03 01:51:48;;;;;;;3.63;2.88;;;-1.10;1.00;;;;;;5292291;28;20038;-39
2023/12/03 01:54:22;;;;;;;9.75;4.63;;;-1.00;1.00;;;;;;5292090;28;20566;-40
2023/12/03 01:56:56;;;;;;;8.27;5.03;;;-1.20;1.00;;;;;;5291547;28;20023;-39
2023/12/03 01:59:28;;;;;;;6.30;4.75;;;-1.20;99.90;;;;;;5291612;28;20284;-39
2023/12/03 02:01:59;;;;;;;6.15;4.43;;;-1.30;99.90;;;;;;5270271;28;20463;-39
2023/12/03 02:04:33;;;;;;;4.00;3.60;;;-1.30;99.90;;;;;;5290884;28;20031;-39
2023/12/03 02:07:04;;;;;;;;;;;-1.20;1.00;;;;;;5272443;28;20112;-37
2023/12/03 02:09:36;;;;;;;7.28;5.28;;;-1.30;99.90;;;;;;5272821;28;19921;-39
2023/12/03 02:12:11;;;;;;;9.43;6.10;;;-1.30;99.90;;;;;;5291988;28;20024;-37
2023/12/03 02:14:42;;;;;;;7.70;5.53;;;-1.30;1.00;;;;;;5272918;28;20148;-39
2023/12/03 02:17:23;;;;;;;4.72;3.13;;;-1.30;1.00;;;;;;5269017;28;20031;-37
2023/12/03 02:19:57;;;;;;;9.40;5.20;;;-1.30;1.00;;;;;;5272326;28;20024;-37
2023/12/03 02:22:28;;;;;;;6.93;5.30;;;-1.20;1.00;;;;;;5290780;28;20113;-37
2023/12/03 02:25:02;;;;;;;8.20;5.38;;;-1.30;1.00;;;;;;5291256;28;20028;-39
2023/12/03 02:27:35;;;;;;;7.05;4.43;;;-1.30;99.90;;;;;;5290896;28;20027;-39
2023/12/03 02:30:13;;;;;;;4.63;3.50;;;-1.40;99.90;;;;;;5287882;28;20051;-36
2023/12/03 02:32:47;;;;;;;7.22;5.07;;;-1.30;1.00;;;;;;5290551;28;20199;-36
2023/12/03 02:35:21;;;;;;;6.28;4.00;;;-1.30;99.90;;;;;;5272840;28;20040;-38
2023/12/03 02:37:55;;;;;;;7.43;4.30;;;-1.40;32.00;;;;;;5255761;28;20034;-37
2023/12/03 02:40:27;;;;;;;;;;;-1.30;99.90;;;;;;5291983;28;20032;-36
2023/12/03 02:42:59;;;;;;;8.93;5.53;;;-1.40;99.90;;;;;;5290894;28;19906;-36
2023/12/03 02:45:31;;;;;;;6.88;4.18;;;-1.40;99.90;;;;;;5287015;28;20023;-36
2023/12/03 02:48:02;;;;;;;5.85;4.40;;;-1.40;99.90;;;;;;5290345;28;20036;-35
2023/12/03 02:50:33;;;;;;;6.35;4.65;;;-1.50;99.90;;;;;;5291429;27;20035;-35
2023/12/03 02:53:10;;;;;;;7.57;4.30;;;-1.50;1.00;;;;;;5295093;27;20029;-37
2023/12/03 02:55:46;;;;;;;9.13;4.47;;;-1.50;1.00;;;;;;5304177;27;20331;-36
2023/12/03 02:58:20;;;;;;;8.50;4.90;;;-1.60;55.20;;;;;;5305566;27;20087;-34
2023/12/03 03:01:02;;;;;;;;;;;-1.60;99.90;;;;;;5307831;27;20035;-34
2023/12/03 03:03:34;;;;;;;10.57;5.73;;;-1.70;1.00;;;;;;5311566;27;19930;-35
2023/12/03 03:06:05;;;;;;;7.85;4.53;;;-1.80;81.80;;;;;;5311726;27;20470;-36
2023/12/03 03:08:36;;;;;;;4.07;3.67;;;-1.80;99.90;;;;;;5311992;27;20015;-36
2023/12/03 03:11:11;;;;;;;6.23;4.30;;;-1.80;1.00;;;;;;5312321;27;20023;-36
2023/12/03 03:13:45;;;;;;;7.33;4.37;;;-1.90;99.90;;;;;;5310821;27;20019;-36
2023/12/03 03:16:19;;;;;;;3.67;3.33;;;-2.00;99.90;;;;;;5311656;27;20412;-36
2023/12/03 03:18:54;;;;;;;5.90;3.67;;;-1.90;99.90;;;;;;5311742;27;20070;-34
2023/12/03 03:21:27;;;;;;;3.70;3.33;;;-2.00;1.00;;;;;;5294467;27;20033;-34
2023/12/03 03:23:58;;;;;;;4.50;3.45;;;-1.90;99.90;;;;;;5311444;27;20035;-35
2023/12/03 03:26:35;;;;;;;8.37;4.50;;;-2.10;1.00;;;;;;5311935;27;20026;-35
2023/12/03 03:29:06;;;;;;;3.87;2.90;;;-2.00;99.70;;;;;;5291276;28;20043;-34
2023/12/03 03:31:37;;;;;;;7.07;4.30;;;-2.00;1.00;;;;;;5287674;28;20039;-34
2023/12/03 03:34:14;;;;;;;3.30;3.00;;;-2.00;1.00;;;;;;5273042;28;20039;-35
2023/12/03 03:36:47;;;;;;;4.50;3.43;;;-2.20;1.00;;;;;;5294434;28;20048;-33
2023/12/03 03:39:19;;;;;;;5.03;3.65;;;-2.30;1.20;;;;;;5294636;28;20028;-35
2023/12/03 03:41:55;;;;;;;3.77;3.27;;;-2.20;1.00;;;;;;5260062;28;20039;-35
2023/12/03 03:44:26;;;;;;;4.85;3.38;;;-2.00;99.90;;;;;;5276243;28;20050;-33
2023/12/03 03:47:01;;;;;;;6.70;3.97;;;-2.10;1.00;;;;;;5291816;28;20283;-34
2023/12/03 03:49:35;;;;;;;4.03;3.17;;;-2.20;14.90;;;;;;5276457;28;20032;-35
2023/12/03 03:52:09;;;;;;;5.82;3.70;;;-2.10;1.00;;;;;;5296731;27;20042;-35
2023/12/03 03:54:44;;;;;;;4.87;3.77;;;-2.10;1.00;;;;;;5312408;27;20015;-35
2023/12/03 03:57:15;;;;;;;3.70;2.77;;;-2.10;99.90;;;;;;5293393;28;20031;-33
2023/12/03 03:59:49;;;;;;;4.40;3.77;;;-2.20;1.00;;;;;;5294923;28;20341;-33
2023/12/03 04:02:24;;;;;;;3.67;2.60;;;-2.30;1.00;;;;;;5292030;28;20030;-33
2023/12/03 04:04:59;;;;;;;5.90;3.37;;;-2.10;99.90;;;;;;5294852;28;20039;-32
2023/12/03 04:07:31;;;;;;;4.07;3.33;;;-2.20;1.00;;;;;;5294969;28;20039;-33
2023/12/03 04:10:02;;;;;;;5.00;3.33;;;-2.30;1.00;;;;;;5297846;27;20018;-33
2023/12/03 04:12:36;;;;;;;3.95;3.25;;;-2.20;1.00;;;;;;5315930;27;20036;-35
2023/12/03 04:15:08;;;;;;;3.53;2.35;;;-2.20;1.00;;;;;;5293716;27;20039;-35
2023/12/03 04:17:39;;;;;;;3.80;2.90;;;-2.30;1.00;;;;;;5315343;27;20133;-35
2023/12/03 04:20:11;;;;;;;5.83;4.07;;;-2.30;1.00;;;;;;5315910;27;20019;-35
2023/12/03 04:22:44;;;;;;;5.57;3.20;;;-2.20;1.00;;;;;;5315680;27;20041;-35
2023/12/03 04:25:18;;;;;;;4.25;3.22;;;-2.20;1.00;;;;;;5313481;27;20039;-35
2023/12/03 04:27:52;;;;;;;7.05;4.32;;;-2.40;1.00;;;;;;5304883;27;20300;-35
2023/12/03 04:30:23;;;;;;;6.03;4.03;;;-2.40;1.00;;;;;;5290677;28;20112;-34
2023/12/03 04:32:55;;;;;;;6.60;4.43;;;-2.40;99.90;;;;;;5275298;28;20225;-34
2023/12/03 04:35:29;;;;;;;2.33;2.07;;;-2.40;94.40;;;;;;5293896;28;20027;-33
2023/12/03 04:38:00;;;;;;;6.57;4.10;;;-2.30;99.20;;;;;;5294238;28;20054;-34
2023/12/03 04:40:34;;;;;;;6.83;3.47;;;-2.20;99.90;;;;;;5293780;28;20028;-34
2023/12/03 04:43:10;;;;;;;6.07;3.90;;;-2.30;99.90;;;;;;5291883;28;20110;-32
2023/12/03 04:45:42;;;;;;;5.57;3.35;;;-2.30;1.00;;;;;;5287917;28;20123;-33
2023/12/03 04:48:13;;;;;;;3.60;2.87;;;-2.30;1.00;;;;;;5272099;28;20031;-32
2023/12/03 04:50:45;;;;;;;2.75;2.33;;;-2.20;1.00;;;;;;5291598;28;20027;-32
2023/12/03 04:53:16;;;;;;;3.53;3.13;;;-2.30;99.90;;;;;;5292049;28;20161;-32
2023/12/03 04:55:47;;;;;;;7.73;4.40;;;-2.30;1.00;;;;;;5291039;28;20318;-32
2023/12/03 04:58:20;;;;;;;4.27;3.63;;;-2.50;99.90;;;;;;5288036;28;20324;-33
2023/12/03 05:00:58;;;;;;;10.03;5.90;;;-2.50;1.00;;;;;;5288082;28;20326;-32
2023/12/03 05:03:30;;;;;;;6.93;3.70;;;-2.50;1.00;;;;;;5291518;28;20288;-33
2023/12/03 05:06:01;;;;;;;5.67;3.50;;;-2.50;99.90;;;;;;5289935;28;20054;-33
2023/12/03 05:08:32;;;;;;;8.47;4.37;;;-2.40;99.90;;;;;;5291227;28;20031;-32
2023/12/03 05:11:06;;;;;;;7.77;4.63;;;-2.50;1.00;;;;;;5305796;27;20044;-33
2023/12/03 05:13:39;;;;;;;6.63;4.25;;;-2.60;1.00;;;;;;5291076;28;20031;-33
2023/12/03 05:16:13;;;;;;;6.75;3.70;;;-2.50;99.90;;;;;;5287344;28;20039;-32
2023/12/03 05:18:47;;;;;;;4.85;3.22;;;-2.50;1.00;;;;;;5306139;27;20087;-33
2023/12/03 05:21:21;;;;;;;6.93;3.60;;;-2.40;1.00;;;;;;5306016;27;20035;-32
2023/12/03 05:23:53;;;;;;;9.95;4.80;;;-2.30;1.00;;;;;;5307081;27;20035;-32
2023/12/03 05:26:24;;;;;;;6.23;3.80;;;-2.20;1.00;;;;;;5291244;28;20322;-32
2023/12/03 05:28:58;;;;;;;8.87;5.07;;;-2.10;1.00;;;;;;5309795;27;20041;-33
2023/12/03 05:31:29;;;;;;;6.40;3.60;;;-2.20;99.90;;;;;;5289578;27;20114;-35
2023/12/03 05:34:03;;;;;;;6.77;4.23;;;-2.00;99.90;;;;;;5312770;27;20019;-35
2023/12/03 05:36:36;;;;;;;5.05;4.55;;;-2.10;98.70;;;;;;5311277;27;20039;-32
2023/12/03 05:39:10;;;;;;;4.43;2.92;;;-2.00;99.90;;;;;;5311692;27;20035;-33
2023/12/03 05:41:44;;;;;;;;;;;-2.00;1.00;;;;;;5294025;27;20027;-32
2023/12/03 05:44:16;;;;;;;7.23;4.63;;;-2.10;1.00;;;;;;5293097;27;19956;-32
2023/12/03 05:46:48;;;;;;;6.18;4.40;;;-2.00;1.00;;;;;;5289438;27;20033;-32
2023/12/03 05:49:19;;;;;;;6.17;4.53;;;-2.00;99.90;;;;;;5275511;27;20039;-32
2023/12/03 05:51:50;;;;;;;5.17;4.10;;;-2.00;1.00;;;;;;5311486;27;20057;-32
2023/12/03 05:54:23;;;;;;;5.47;3.47;;;-2.10;45.00;;;;;;5311810;27;20041;-32
2023/12/03 05:56:55;;;;;;;5.70;3.80;;;-2.10;99.90;;;;;;5307808;27;20362;-32
2023/12/03 05:59:28;;;;;;;6.57;4.07;;;-2.10;93.00;;;;;;5289027;28;20199;-32
2023/12/03 06:02:02;;;;;;;8.48;4.80;;;-2.10;99.90;;;;;;5271348;27;20350;-32
2023/12/03 06:04:34;;;;;;;;;;;-2.10;1.00;;;;;;5307257;27;20038;-32
2023/12/03 06:07:05;;;;;;;4.30;3.73;;;-2.10;1.00;;;;;;5298876;27;19915;-32
2023/12/03 06:09:39;;;;;;;5.00;3.50;;;-2.00;1.00;;;;;;5294585;27;20023;-32
2023/12/03 06:12:10;;;;;;;7.30;4.53;;;-2.10;99.90;;;;;;5309210;27;20027;-32
2023/12/03 06:14:41;;;;;;;4.60;3.40;;;-2.10;99.90;;;;;;5313129;27;20031;-32
2023/12/03 06:17:15;;;;;;;5.43;4.23;;;-2.10;99.90;;;;;;5274188;27;20027;-32
2023/12/03 06:19:46;;;;;;;2.58;2.28;;;-2.10;1.00;;;;;;5312716;27;20188;-32
2023/12/03 06:22:17;;;;;;;3.60;2.88;;;-2.00;49.10;;;;;;5309245;27;20033;-32
2023/12/03 06:24:49;;;;;;;8.70;5.07;;;-2.10;99.90;;;;;;5305024;27;20039;-32
2023/12/03 06:27:22;;;;;;;5.70;4.10;;;-2.00;99.90;;;;;;5300417;27;20031;-32
2023/12/03 06:29:54;;;;;;;8.03;4.77;;;-2.00;1.00;;;;;;5296333;27;20019;-32
2023/12/03 06:32:28;;;;;;;5.00;3.50;;;-2.20;1.00;;;;;;5287305;27;20039;-33
2023/12/03 06:34:59;;;;;;;5.97;4.85;;;-2.10;1.00;;;;;;5291017;27;20224;-32
2023/12/03 06:37:30;;;;;;;4.23;3.20;;;-2.10;1.00;;;;;;5288691;27;20027;-32
2023/12/03 06:40:04;;;;;;;6.03;3.78;;;-2.10;99.90;;;;;;5312618;27;20027;-32
2023/12/03 06:42:35;;;;;;;6.30;4.43;;;-2.00;1.00;;;;;;5308514;27;20023;-32
2023/12/03 06:45:10;;;;;;;6.17;4.03;;;-2.00;99.90;;;;;;5308933;27;20045;-32
2023/12/03 06:47:46;;;;;;;4.67;3.73;;;-2.10;1.00;;;;;;5292407;27;20031;-32
2023/12/03 06:50:20;;;;;;;6.53;4.17;;;-2.20;1.00;;;;;;5300812;27;20052;-33
2023/12/03 06:52:51;;;;;;;6.17;4.53;;;-2.00;99.90;;;;;;5290104;27;20019;-33
2023/12/03 06:55:25;;;;;;;4.65;4.20;;;-2.00;1.00;;;;;;5311770;27;20037;-33
2023/12/03 06:57:56;;;;;;;4.72;3.17;;;-1.90;1.00;;;;;;5265604;28;20032;-32
2023/12/03 07:00:30;;;;;;;3.80;2.80;;;-2.00;1.00;;;;;;5269265;28;20367;-32
2023/12/03 07:03:01;;;;;;;5.82;3.17;;;-1.90;1.00;;;;;;5291374;27;20019;-33
2023/12/03 07:05:32;;;;;;;9.97;5.03;;;-2.00;1.00;;;;;;5293465;27;20039;-33
2023/12/03 07:08:04;;;;;;;5.03;3.80;;;-2.10;1.00;;;;;;5293730;27;20041;-33
2023/12/03 07:10:37;;;;;;;6.90;4.03;;;-2.20;1.00;;;;;;5292922;27;20039;-33
2023/12/03 07:13:08;;;;;;;5.43;4.03;;;-2.20;99.90;;;;;;5308622;27;20037;-33
2023/12/03 07:15:40;;;;;;;5.30;3.60;;;-2.10;1.00;;;;;;5307370;27;20376;-33
2023/12/03 07:18:11;;;;;;;5.40;4.23;;;-2.00;1.00;;;;;;5311823;27;20027;-33
2023/12/03 07:20:45;;;;;;;7.93;4.37;;;-2.00;99.90;;;;;;5293545;27;20311;-33
2023/12/03 07:23:16;;;;;;;5.50;3.88;;;-2.10;1.00;;;;;;5308390;27;20034;-33
2023/12/03 07:25:47;;;;;;;5.87;4.00;;;-1.90;1.00;;;;;;5312023;27;20039;-33
2023/12/03 07:28:18;;;;;;;6.37;4.23;;;-1.90;99.90;;;;;;5306890;27;20038;-33
2023/12/03 07:30:52;;;;;;;4.53;3.30;;;-1.90;63.90;;;;;;5307510;28;20295;-33
2023/12/03 07:33:25;;;;;;;6.70;4.80;;;-1.90;81.70;;;;;;5302122;28;20343;-33
2023/12/03 07:35:59;;;;;;;7.13;3.93;;;-2.00;99.90;;;;;;5312456;28;20053;-33
2023/12/03 07:38:31;;;;;;;6.68;4.88;;;-1.90;1.00;;;;;;5276934;28;20031;-33
2023/12/03 07:41:04;;;;;;;8.77;5.20;;;-1.90;99.90;;;;;;5292017;28;20057;-33
2023/12/03 07:43:38;;;;;;;6.65;5.03;;;-2.00;1.00;;;;;;5310648;28;20035;-33
2023/12/03 07:46:16;;;;;;;9.82;4.05;;;-1.80;1.00;;;;;;5308830;28;20050;-33
2023/12/03 07:48:50;;;;;;;7.18;4.22;;;-1.80;99.90;;;;;;5312170;28;20035;-33
2023/12/03 07:51:21;;;;;;;4.80;3.60;;;-1.80;99.90;;;;;;5308713;28;20030;-33
2023/12/03 07:53:53;;;;;;;5.57;4.47;;;-1.60;99.90;;;;;;5312463;28;20033;-33
2023/12/03 07:56:36;;;;;;;3.53;3.08;;;-1.60;62.60;;;;;;5282008;28;20035;-32
2023/12/03 07:59:15;;;;;;;6.32;4.50;;;-1.60;99.90;;;;;;5293886;28;20029;-33
2023/12/03 08:01:50;;;;;;;7.43;4.82;;;-1.50;99.90;;;;;;5307972;28;20023;-33
2023/12/03 08:04:23;;;;;;;6.57;4.50;;;-1.50;1.00;;;;;;5293604;28;20351;-33
2023/12/03 08:06:54;;;;;;;7.18;4.82;;;-1.50;99.90;;;;;;5293534;28;20035;-33
2023/12/03 08:09:28;;;;;;;6.80;4.47;;;-1.60;1.00;;;;;;5312334;28;20039;-32
2023/12/03 08:12:02;;;;;;;5.28;4.40;;;-1.70;1.00;;;;;;5308787;28;20031;-33
2023/12/03 08:14:36;;;;;;;;;;;-1.60;99.90;;;;;;5309316;28;20035;-33
2023/12/03 08:17:11;;;;;;;6.38;4.78;;;-1.50;1.00;;;;;;5307888;28;19917;-32
2023/12/03 08:19:49;;;;;;;5.93;4.20;;;-1.40;29.30;;;;;;5302890;27;20045;-33
2023/12/03 08:22:20;;;;;;;7.88;5.07;;;-1.30;1.00;;;;;;5301450;27;20050;-32
2023/12/03 08:24:52;;;;;;;7.30;5.07;;;-1.40;1.00;;;;;;5314377;27;20027;-33
2023/12/03 08:27:24;;;;;;;7.20;5.25;;;-1.20;99.90;;;;;;5306323;27;20349;-32
2023/12/03 08:29:57;;;;;;;8.57;4.60;;;-1.20;1.00;;;;;;5305425;27;20034;-34
2023/12/03 08:32:28;;;;;;;7.78;4.70;;;-1.30;1.00;;;;;;5308360;27;20046;-34
2023/12/03 08:35:02;;;;;;;8.68;5.53;;;-1.30;1.00;;;;;;5293649;27;20031;-32
2023/12/03 08:37:36;;;;;;;8.18;4.85;;;-1.20;99.90;;;;;;5309996;27;20243;-32
2023/12/03 08:40:10;;;;;;;5.60;4.13;;;-1.40;1.00;;;;;;5310479;27;20123;-32
2023/12/03 08:42:44;;;;;;;;;;;-1.40;1.00;;;;;;5306549;27;20038;-32
2023/12/03 08:45:15;;;;;;;6.72;4.13;;;-1.50;1.00;;;;;;5310369;27;19907;-32
2023/12/03 08:47:46;;;;;;;4.25;3.42;;;-1.50;1.00;;;;;;5293495;27;20031;-32
2023/12/03 08:50:27;;;;;;;6.93;3.90;;;-1.50;13.90;;;;;;5299354;27;20041;-32
2023/12/03 08:53:01;;;;;;;8.03;4.23;;;-1.40;1.00;;;;;;5309926;27;20031;-32
2023/12/03 08:55:32;;;;;;;;;;;-1.40;1.00;;;;;;5314279;27;20023;-32
2023/12/03 08:58:03;;;;;;;6.57;4.20;;;-1.40;1.00;;;;;;5298556;27;19908;-32
2023/12/03 09:00:37;;;;;;;11.27;6.43;;;-1.40;17.00;;;;;;5299765;27;20027;-33
2023/12/03 09:03:08;;;;;;;5.85;4.60;;;-1.40;1.00;;;;;;5295358;27;20037;-32
2023/12/03 09:05:41;;;;;;;5.33;3.87;;;-1.30;1.00;;;;;;5314286;27;20089;-34
2023/12/03 09:08:13;;;;;;;4.93;4.28;;;-1.30;12.70;;;;;;5311258;27;20030;-34
2023/12/03 09:10:45;;;;;;;4.87;3.77;;;-1.20;32.10;;;;;;5286511;27;20035;-33
2023/12/03 09:13:17;;;;;;;5.43;3.37;;;-1.30;23.70;;;;;;5309233;27;20033;-33
2023/12/03 09:15:48;;;;;;;4.65;3.28;;;-1.20;99.90;;;;;;5305194;27;20031;-33
2023/12/03 09:18:22;;;;;;;5.33;4.03;;;-1.10;99.90;;;;;;5295912;27;20031;-32
2023/12/03 09:20:53;;;;;;;4.75;3.30;;;-1.30;76.00;;;;;;5296421;27;20019;-32
2023/12/03 09:23:24;;;;;;;6.15;4.07;;;-1.20;99.90;;;;;;5311045;27;20035;-32
2023/12/03 09:25:58;;;;;;;4.13;2.97;;;-1.10;99.90;;;;;;5301981;27;20028;-33
2023/12/03 09:28:30;;;;;;;3.47;2.78;;;-0.90;99.90;;;;;;5298480;27;20108;-35
2023/12/03 09:31:06;;;;;;;3.30;2.53;;;-1.00;99.90;;;;;;5296585;27;20347;-32
2023/12/03 09:33:37;;;;;;;3.47;2.40;;;-1.00;99.90;;;;;;5305410;27;20041;-32
2023/12/03 09:36:13;;;;;;;4.35;2.88;;;-1.10;99.90;;;;;;5295558;27;20510;-32
2023/12/03 09:38:48;;;;;;;4.35;3.03;;;-0.90;99.90;;;;;;5260668;28;20040;-32
2023/12/03 09:41:22;;;;;;;;;;;-0.80;99.90;;;;;;5286466;27;20268;-32
2023/12/03 09:43:58;;;;;;;4.05;2.83;;;-0.70;99.90;;;;;;5282705;27;19919;-35
2023/12/03 09:46:32;;;;;;;3.35;2.53;;;-0.50;99.90;;;;;;5282859;28;20346;-33
2023/12/03 09:49:11;;;;;;;4.03;2.70;;;-0.40;99.90;;;;;;5290646;28;20228;-35
2023/12/03 09:51:43;;;;;;;3.13;2.00;;;-0.50;99.90;;;;;;5292169;28;20039;-34
2023/12/03 09:54:14;;;;;;;5.30;3.33;;;-0.30;99.90;;;;;;5273184;28;20305;-34
2023/12/03 09:56:49;;;;;;;3.63;2.47;;;0.00;99.90;;;;;;5273639;28;20397;-34
2023/12/03 09:59:20;;;;;;;4.72;3.00;;;0.10;97.60;;;;;;5271320;28;20020;-34
2023/12/03 10:01:57;;;;;;;3.05;2.28;;;0.30;99.90;;;;;;5275865;28;20293;-34
2023/12/03 10:04:30;;;;;;;2.67;1.80;;;0.20;99.90;;;;;;5292340;28;20049;-34
2023/12/03 10:07:02;;;;;;;5.18;2.92;;;0.00;99.90;;;;;;5288872;28;20042;-34
2023/12/03 10:09:42;;;;;;;4.68;2.95;;;-0.40;93.50;;;;;;5269560;28;20355;-34
2023/12/03 10:12:19;;;;;;;2.03;1.50;;;-0.30;99.90;;;;;;5284033;28;20033;-34
2023/12/03 10:14:51;;;;;;;3.63;2.58;;;0.00;99.90;;;;;;5282649;27;20037;-34
2023/12/03 10:17:25;;;;;;;3.15;2.17;;;-0.10;99.90;;;;;;5283729;28;20027;-34
2023/12/03 10:20:22;;;;;;;2.92;2.17;;;-0.10;99.90;;;;;;5287053;28;20027;-34
2023/12/03 10:23:00;;;;;;;3.28;2.00;;;-0.30;99.90;;;;;;5287139;28;20019;-34
2023/12/03 10:25:34;;;;;;;2.08;1.95;;;-0.30;99.90;;;;;;5283955;28;20038;-34
2023/12/03 10:28:06;;;;;;;2.70;2.15;;;-0.10;99.90;;;;;;5287619;28;20037;-34
2023/12/03 10:30:37;;;;;;;2.40;2.20;;;-0.20;99.90;;;;;;5284726;28;20031;-34
2023/12/03 10:33:11;;;;;;;2.90;2.03;;;0.00;99.90;;;;;;5286482;28;20023;-34
2023/12/03 10:35:43;;;;;;;3.95;3.15;;;0.60;99.90;;;;;;5282565;27;20129;-34
2023/12/03 10:38:16;;;;;;;3.85;2.95;;;1.00;99.90;;;;;;5287458;28;20027;-34
2023/12/03 10:40:48;;;;;;;4.10;2.78;;;1.30;80.60;;;;;;5287071;28;20193;-34
2023/12/03 10:43:22;;;;;;;2.28;2.08;;;1.10;94.80;;;;;;5275925;28;20058;-34
2023/12/03 10:45:54;;;;;;;3.40;3.03;;;1.00;1.00;;;;;;5262579;28;20317;-34
2023/12/03 10:48:28;;;;;;;2.20;2.00;;;1.20;99.90;;;;;;5265711;28;20032;-34
2023/12/03 10:51:05;;;;;;;8.52;2.78;;;1.10;99.90;;;;;;5264857;28;20290;-33
2023/12/03 10:53:37;;;;;;;4.15;3.15;;;1.00;99.90;;;;;;5263325;28;20028;-35
2023/12/03 10:56:09;;;;;;;4.00;2.75;;;1.00;99.90;;;;;;5280573;28;20050;-35
2023/12/03 10:58:43;;;;;;;3.08;2.55;;;1.10;18.30;;;;;;5246174;28;20039;-36
2023/12/03 11:01:24;;;;;;;3.38;2.65;;;0.90;94.60;;;;;;5261147;28;20036;-36
2023/12/03 11:04:00;;;;;;;3.03;2.65;;;1.00;99.90;;;;;;5265676;28;20024;-35
2023/12/03 11:06:34;;;;;;;5.80;3.38;;;0.90;98.50;;;;;;5265498;28;20028;-34
2023/12/03 11:09:07;;;;;;;4.25;3.50;;;1.50;92.20;;;;;;5265089;28;20031;-34
2023/12/03 11:11:39;;;;;;;5.00;3.50;;;1.50;99.90;;;;;;5265525;28;20042;-34
2023/12/03 11:14:10;;;;;;;3.78;2.83;;;1.40;16.70;;;;;;5264220;28;20024;-35
2023/12/03 11:17:05;;;;;;;4.40;3.30;;;1.20;1.00;;;;;;5262212;28;20045;-34
2023/12/03 11:19:39;;;;;;;3.78;2.75;;;0.90;1.00;;;;;;5266009;28;20022;-35
2023/12/03 11:22:45;;;;;;;4.97;3.00;;;0.80;1.00;;;;;;5264449;28;20248;-35
2023/12/03 11:25:23;;;;;;;3.92;2.58;;;0.80;1.00;;;;;;5263459;28;20020;-34
2023/12/03 11:27:57;;;;;;;3.83;2.58;;;0.60;1.00;;;;;;5264302;28;20347;-34
2023/12/03 11:30:42;;;;;;;4.28;3.40;;;0.70;1.00;;;;;;5261389;28;20050;-34
2023/12/03 11:33:14;;;;;;;3.03;2.30;;;1.00;1.00;;;;;;5265189;28;20023;-34
2023/12/03 11:35:46;;;;;;;3.70;3.20;;;1.10;61.60;;;;;;5262319;28;20034;-34
2023/12/03 11:38:21;;;;;;;3.38;2.63;;;1.20;31.60;;;;;;5262452;28;20024;-34
2023/12/03 11:40:52;;;;;;;3.67;2.70;;;1.20;39.30;;;;;;5265486;28;20028;-33
2023/12/03 11:43:30;;;;;;;4.80;3.30;;;1.20;23.90;;;;;;5276330;28;20027;-35
2023/12/03 11:46:02;;;;;;;6.30;3.30;;;1.20;73.20;;;;;;5284458;28;20023;-35
2023/12/03 11:48:34;;;;;;;3.22;2.80;;;1.60;85.20;;;;;;5285694;28;20035;-35
2023/12/03 11:51:06;;;;;;;5.07;3.08;;;1.60;99.90;;;;;;5288296;28;20023;-35
2023/12/03 11:54:00;;;;;;;4.72;3.78;;;1.40;32.30;;;;;;5306682;28;20027;-36
2023/12/03 11:56:33;;;;;;;4.63;3.47;;;1.70;87.30;;;;;;5306121;27;20031;-35
2023/12/03 11:59:05;;;;;;;3.92;3.35;;;1.40;39.20;;;;;;5309110;27;20027;-36
2023/12/03 12:01:38;;;;;;;3.70;3.10;;;1.30;56.70;;;;;;5306959;27;20319;-35
2023/12/03 12:04:22;;;;;;;3.05;2.60;;;1.30;99.90;;;;;;5290592;27;20031;-35
2023/12/03 12:06:59;;;;;;;3.17;2.45;;;0.90;57.50;;;;;;5309654;27;20035;-36
2023/12/03 12:09:32;;;;;;;3.17;2.42;;;0.90;99.90;;;;;;5310598;27;20023;-35
2023/12/03 12:12:04;;;;;;;3.63;3.08;;;0.90;5.60;;;;;;5293397;27;20073;-35
2023/12/03 12:14:35;;;;;;;3.75;2.90;;;0.80;8.10;;;;;;5288840;27;20031;-35
2023/12/03 12:17:09;;;;;;;3.47;2.58;;;0.60;14.00;;;;;;5306136;27;20023;-34
2023/12/03 12:19:48;;;;;;;3.22;2.78;;;0.20;15.00;;;;;;5290769;27;20027;-35
2023/12/03 12:22:19;;;;;;;4.07;3.42;;;0.10;1.00;;;;;;5291141;27;20027;-35
2023/12/03 12:24:51;;;;;;;4.70;2.55;;;-0.10;1.00;;;;;;5310314;27;20019;-35
2023/12/03 12:27:22;;;;;;;6.13;4.03;;;0.10;1.00;;;;;;5307777;27;20035;-34
2023/12/03 12:29:54;;;;;;;2.05;1.92;;;0.30;1.00;;;;;;5309920;27;20023;-39
2023/12/03 12:32:25;;;;;;;5.10;3.58;;;0.50;1.00;;;;;;5303825;27;20800;-34
2023/12/03 12:35:03;;;;;;;5.45;3.30;;;0.30;1.00;;;;;;5310541;27;20319;-34
2023/12/03 12:37:34;;;;;;;3.53;2.63;;;0.30;1.00;;;;;;5309033;27;20027;-35
2023/12/03 12:40:16;;;;;;;2.85;2.55;;;0.60;1.00;;;;;;5309316;27;20014;-34
2023/12/03 12:42:53;;;;;;;2.72;2.42;;;0.50;1.00;;;;;;5307947;27;20011;-35
2023/12/03 12:45:30;;;;;;;3.15;2.65;;;0.10;1.00;;;;;;5305334;27;20628;-35
2023/12/03 12:48:02;;;;;;;3.15;2.85;;;-0.10;1.00;;;;;;5308739;27;20027;-35
2023/12/03 12:50:40;;;;;;;3.92;2.85;;;-0.10;1.00;;;;;;5308758;27;20300;-35
2023/12/03 12:53:13;;;;;;;5.30;3.92;;;-0.20;1.00;;;;;;5306785;27;20061;-35
2023/12/03 12:55:47;;;;;;;4.78;3.63;;;-0.20;1.00;;;;;;5288124;27;20231;-35
2023/12/03 12:58:21;;;;;;;5.18;3.70;;;0.00;1.00;;;;;;5304521;27;20377;-35
2023/12/03 13:00:52;;;;;;;5.10;3.25;;;-0.20;1.00;;;;;;5285528;27;20022;-36
2023/12/03 13:03:26;;;;;;;4.35;3.58;;;-0.20;1.00;;;;;;5284209;27;20042;-35
2023/12/03 13:05:59;;;;;;;3.00;2.65;;;-0.30;1.00;;;;;;5308473;27;20034;-35
2023/12/03 13:08:31;;;;;;;4.72;3.22;;;-0.40;1.00;;;;;;5290143;27;20027;-36
2023/12/03 13:11:05;;;;;;;3.10;2.75;;;-0.80;1.00;;;;;;5306775;27;20030;-35
2023/12/03 13:13:36;;;;;;;4.70;3.22;;;-1.00;1.00;;;;;;5307727;27;20236;-35
2023/12/03 13:16:11;;;;;;;3.47;2.28;;;-1.00;1.00;;;;;;5302020;27;20045;-35
2023/12/03 13:18:42;;;;;;;4.03;3.58;;;-1.10;1.00;;;;;;5307409;27;20034;-35
2023/12/03 13:21:13;;;;;;;4.43;3.70;;;-1.30;1.00;;;;;;5303360;27;20038;-35
2023/12/03 13:23:47;;;;;;;3.63;2.30;;;-1.20;3.30;;;;;;5309001;27;20367;-35
2023/12/03 13:26:19;;;;;;;5.15;3.60;;;-1.30;96.80;;;;;;5308094;27;20035;-34
2023/12/03 13:28:50;;;;;;;6.60;4.32;;;-1.40;1.00;;;;;;5307973;27;20269;-36